N852PS CYZV-CYYR

Flight info

Callsign N852PS
Flight time 1h 6m
Altitude 29000
Route ALKOB DCT TASTI
Aircraft TBM8/L-SDFGRWY/S

Departure

Time 2026-05-03 22:34
Airport Sept-Îles Airport (CYZV)

Arrival

Time 2026-05-03 23:40
Airport Goose Bay Airport (CYYR)
Time Latitude Longitude Altitude Speed Heading
2026-05-03 22:27 50.21894 -66.26546 174 ft 0 kts 200°
2026-05-03 22:30 50.21870 -66.26562 174 ft 14 kts 210°
2026-05-03 22:30 50.21798 -66.26710 174 ft 15 kts 239°
2026-05-03 22:30 50.21750 -66.26877 174 ft 18 kts 248°
2026-05-03 22:31 50.21700 -66.27081 174 ft 22 kts 249°
2026-05-03 22:31 50.21666 -66.27222 174 ft 2 kts 252°
2026-05-03 22:31 50.21664 -66.27249 174 ft 0 kts 291°
2026-05-03 22:32 50.21665 -66.27252 174 ft 0 kts 295°
2026-05-03 22:32 50.21688 -66.27332 174 ft 19 kts 296°
2026-05-03 22:32 50.21748 -66.27529 173 ft 14 kts 292°
2026-05-03 22:33 50.21796 -66.27638 172 ft 13 kts
2026-05-03 22:33 50.21816 -66.27578 171 ft 0 kts 69°
2026-05-03 22:33 50.21817 -66.27575 171 ft 5 kts 69°
2026-05-03 22:33 50.21888 -66.27284 171 ft 55 kts 69°
2026-05-03 22:34 50.22082 -66.26520 250 ft 89 kts 69°
2026-05-03 22:34 50.22338 -66.25561 534 ft 103 kts 69°
2026-05-03 22:34 50.22609 -66.24506 992 ft 105 kts 70°
2026-05-03 22:34 50.22932 -66.23498 1536 ft 102 kts 70°
2026-05-03 22:35 50.23281 -66.22513 2002 ft 106 kts 68°
2026-05-03 22:35 50.23628 -66.21495 2470 ft 109 kts 70°
2026-05-03 22:35 50.23976 -66.20432 2976 ft 111 kts 69°
2026-05-03 22:35 50.24310 -66.19339 3448 ft 113 kts 69°
2026-05-03 22:36 50.24639 -66.18228 3940 ft 113 kts 68°
2026-05-03 22:36 50.25001 -66.17136 4435 ft 113 kts 61°
2026-05-03 22:36 50.25525 -66.16180 4895 ft 118 kts 49°
2026-05-03 22:36 50.26122 -66.15253 5328 ft 120 kts 50°
2026-05-03 22:37 50.26712 -66.14326 5757 ft 123 kts 52°
2026-05-03 22:37 50.27311 -66.13364 6176 ft 125 kts 53°
2026-05-03 22:37 50.27918 -66.12360 6564 ft 128 kts 53°
2026-05-03 22:37 50.28527 -66.11328 6975 ft 130 kts 51°
2026-05-03 22:38 50.29150 -66.10292 7401 ft 132 kts 51°
2026-05-03 22:38 50.29776 -66.09240 7839 ft 134 kts 53°
2026-05-03 22:38 50.30416 -66.08173 8312 ft 135 kts 52°
2026-05-03 22:38 50.31061 -66.07094 8751 ft 137 kts 53°
2026-05-03 22:39 50.31710 -66.05993 9202 ft 138 kts 53°
2026-05-03 22:39 50.32369 -66.04885 9657 ft 140 kts 52°
2026-05-03 22:39 50.33038 -66.03766 10057 ft 142 kts 52°
2026-05-03 22:39 50.33713 -66.02631 10484 ft 143 kts 52°
2026-05-03 22:40 50.34393 -66.01482 10897 ft 145 kts 53°
2026-05-03 22:40 50.35082 -66.00320 11305 ft 146 kts 53°
2026-05-03 22:40 50.35780 -65.99145 11709 ft 148 kts 53°
2026-05-03 22:40 50.36482 -65.97953 12101 ft 150 kts 54°
2026-05-03 22:41 50.37192 -65.96743 12483 ft 152 kts 53°
2026-05-03 22:41 50.37914 -65.95532 12860 ft 153 kts 54°
2026-05-03 22:41 50.38640 -65.94306 13217 ft 154 kts 54°
2026-05-03 22:41 50.39376 -65.93064 13586 ft 156 kts 54°
2026-05-03 22:42 50.40117 -65.91813 13910 ft 157 kts 54°
2026-05-03 22:42 50.40862 -65.90551 14218 ft 158 kts 54°
2026-05-03 22:42 50.41614 -65.89279 14533 ft 160 kts 54°
2026-05-03 22:42 50.42372 -65.87993 14856 ft 161 kts 54°
2026-05-03 22:43 50.43135 -65.86699 15172 ft 162 kts 54°
2026-05-03 22:43 50.43907 -65.85390 15493 ft 164 kts 54°
2026-05-03 22:43 50.44684 -65.84074 15796 ft 165 kts 55°
2026-05-03 22:43 50.45468 -65.82742 16095 ft 167 kts 54°
2026-05-03 22:44 50.46267 -65.81388 16367 ft 170 kts 55°
2026-05-03 22:44 50.47069 -65.80020 16674 ft 171 kts 55°
2026-05-03 22:44 50.47879 -65.78642 16986 ft 173 kts 55°
2026-05-03 22:44 50.48697 -65.77250 17293 ft 174 kts 55°
2026-05-03 22:45 50.49521 -65.75850 17604 ft 175 kts 55°
2026-05-03 22:45 50.50350 -65.74438 17919 ft 177 kts 55°
2026-05-03 22:45 50.51186 -65.73011 18213 ft 178 kts 56°
2026-05-03 22:45 50.52020 -65.71573 18488 ft 179 kts 55°
2026-05-03 22:46 50.52867 -65.70137 18768 ft 179 kts 55°
2026-05-03 22:46 50.53715 -65.68694 19039 ft 180 kts 56°
2026-05-03 22:46 50.54563 -65.67244 19308 ft 180 kts 56°
2026-05-03 22:46 50.55415 -65.65789 19564 ft 181 kts 56°
2026-05-03 22:47 50.56268 -65.64323 19814 ft 182 kts 57°
2026-05-03 22:47 50.57122 -65.62853 20086 ft 182 kts 57°
2026-05-03 22:47 50.57979 -65.61379 20343 ft 183 kts 57°
2026-05-03 22:47 50.58830 -65.59916 20606 ft 184 kts 57°
2026-05-03 22:48 50.59706 -65.58413 20875 ft 184 kts 57°
2026-05-03 22:48 50.60562 -65.56941 21133 ft 185 kts 57°
2026-05-03 22:48 50.61446 -65.55426 21404 ft 186 kts 58°
2026-05-03 22:48 50.62318 -65.53922 21665 ft 186 kts 58°
2026-05-03 22:49 50.63194 -65.52414 21918 ft 187 kts 58°
2026-05-03 22:49 50.64076 -65.50896 22134 ft 189 kts 59°
2026-05-03 22:49 50.64952 -65.49386 22367 ft 190 kts 58°
2026-05-03 22:49 50.65845 -65.47851 22605 ft 190 kts 59°
2026-05-03 22:50 50.66741 -65.46312 22843 ft 191 kts 59°
2026-05-03 22:50 50.67639 -65.44765 23068 ft 192 kts 59°
2026-05-03 22:50 50.68541 -65.43206 23311 ft 192 kts 59°
2026-05-03 22:50 50.69446 -65.41646 23523 ft 193 kts 59°
2026-05-03 22:51 50.70354 -65.40073 23712 ft 195 kts 59°
2026-05-03 22:51 50.71268 -65.38492 23896 ft 196 kts 60°
2026-05-03 22:51 50.72190 -65.36897 24053 ft 197 kts 60°
2026-05-03 22:51 50.73121 -65.35283 24197 ft 201 kts 60°
2026-05-03 22:52 50.74072 -65.33617 24329 ft 207 kts 60°
2026-05-03 22:52 50.75046 -65.31899 24461 ft 213 kts 60°
2026-05-03 22:52 50.76051 -65.30129 24600 ft 220 kts 60°
2026-05-03 22:52 50.77087 -65.28305 24733 ft 226 kts 60°
2026-05-03 22:53 50.78156 -65.26433 24861 ft 233 kts 59°
2026-05-03 22:53 50.79255 -65.24509 24994 ft 239 kts 59°
2026-05-03 22:53 50.80385 -65.22530 25118 ft 245 kts 59°
2026-05-03 22:53 50.81543 -65.20504 25254 ft 252 kts 59°
2026-05-03 22:54 50.82731 -65.18426 25384 ft 258 kts 59°
2026-05-03 22:54 50.83944 -65.16301 25516 ft 263 kts 59°
2026-05-03 22:54 50.85183 -65.14131 25643 ft 269 kts 59°
2026-05-03 22:54 50.86447 -65.11918 25765 ft 273 kts 59°
2026-05-03 22:55 50.87734 -65.09664 25896 ft 278 kts 59°
2026-05-03 22:55 50.89023 -65.07404 26024 ft 282 kts 59°
2026-05-03 22:55 50.90350 -65.05077 26155 ft 286 kts 59°
2026-05-03 22:55 50.91691 -65.02723 26281 ft 290 kts 59°
2026-05-03 22:56 50.93050 -65.00335 26411 ft 293 kts 59°
2026-05-03 22:56 50.94422 -64.97922 26544 ft 296 kts 59°
2026-05-03 22:56 50.95808 -64.95486 26676 ft 299 kts 59°
2026-05-03 22:56 50.97207 -64.93026 26804 ft 301 kts 59°
2026-05-03 22:57 50.98613 -64.90549 26929 ft 303 kts 59°
2026-05-03 22:57 51.00028 -64.88054 27060 ft 305 kts 59°
2026-05-03 22:57 51.01454 -64.85542 27180 ft 307 kts 59°
2026-05-03 22:57 51.02887 -64.83012 27303 ft 309 kts 59°
2026-05-03 22:58 51.04329 -64.80467 27446 ft 311 kts 59°
2026-05-03 22:58 51.05776 -64.77908 27574 ft 312 kts 59°
2026-05-03 22:58 51.07229 -64.75336 27706 ft 313 kts 59°
2026-05-03 22:58 51.08687 -64.72753 27839 ft 314 kts 59°
2026-05-03 22:59 51.10150 -64.70159 27973 ft 315 kts 59°
2026-05-03 22:59 51.11612 -64.67560 28101 ft 316 kts 59°
2026-05-03 22:59 51.13084 -64.64949 28237 ft 317 kts 59°
2026-05-03 22:59 51.14556 -64.62336 28364 ft 317 kts 59°
2026-05-03 23:00 51.16029 -64.59723 28502 ft 318 kts 59°
2026-05-03 23:00 51.17507 -64.57102 28640 ft 318 kts 60°
2026-05-03 23:00 51.18976 -64.54476 28753 ft 318 kts 60°
2026-05-03 23:01 51.21944 -64.49151 28848 ft 326 kts 60°
2026-05-03 23:01 51.24981 -64.43677 28845 ft 333 kts 60°
2026-05-03 23:02 51.28080 -64.38087 28846 ft 339 kts 59°
2026-05-03 23:02 51.31225 -64.32421 28849 ft 342 kts 59°
2026-05-03 23:03 51.34396 -64.26693 28851 ft 346 kts 59°
2026-05-03 23:03 51.37596 -64.20901 28847 ft 349 kts 59°
2026-05-03 23:04 51.40820 -64.15059 28842 ft 351 kts 59°
2026-05-03 23:04 51.43512 -64.10166 28844 ft 353 kts 59°
2026-05-03 23:05 51.46767 -64.04236 28851 ft 355 kts 59°
2026-05-03 23:05 51.50004 -63.98244 28852 ft 355 kts 60°
2026-05-03 23:06 51.53674 -63.91150 28855 ft 356 kts 61°
2026-05-03 23:06 51.56328 -63.86012 28856 ft 357 kts 60°
2026-05-03 23:07 51.59513 -63.79851 28851 ft 359 kts 60°
2026-05-03 23:07 51.62710 -63.73663 28863 ft 360 kts 60°
2026-05-03 23:08 51.65916 -63.67450 28854 ft 361 kts 60°
2026-05-03 23:08 51.69121 -63.61226 28854 ft 361 kts 60°
2026-05-03 23:09 51.72326 -63.54984 28843 ft 361 kts 60°
2026-05-03 23:09 51.75534 -63.48732 28853 ft 362 kts 60°
2026-05-03 23:10 51.78738 -63.42463 28851 ft 362 kts 60°
2026-05-03 23:10 51.81923 -63.36218 28860 ft 363 kts 61°
2026-05-03 23:11 51.85126 -63.29921 28856 ft 363 kts 61°
2026-05-03 23:11 51.88324 -63.23618 28855 ft 363 kts 61°
2026-05-03 23:12 51.91520 -63.17306 28843 ft 362 kts 60°
2026-05-03 23:12 51.94709 -63.10995 28856 ft 362 kts 61°
2026-05-03 23:13 51.97900 -63.04660 28861 ft 363 kts 61°
2026-05-03 23:13 52.01086 -62.98313 28854 ft 363 kts 61°
2026-05-03 23:14 52.04276 -62.91950 28852 ft 363 kts 61°
2026-05-03 23:14 52.07459 -62.85580 28854 ft 363 kts 61°
2026-05-03 23:15 52.10643 -62.79200 28851 ft 363 kts 60°
2026-05-03 23:15 52.13823 -62.72810 28856 ft 364 kts 60°
2026-05-03 23:16 52.17005 -62.66394 28853 ft 364 kts 60°
2026-05-03 23:16 52.20186 -62.59968 28853 ft 364 kts 61°
2026-05-03 23:17 52.23361 -62.53534 28854 ft 364 kts 60°
2026-05-03 23:17 52.26534 -62.47090 28849 ft 364 kts 60°
2026-05-03 23:17 52.28131 -62.43830 28491 ft 375 kts 60°
2026-05-03 23:18 52.29766 -62.40439 27948 ft 383 kts 60°
2026-05-03 23:18 52.31415 -62.37025 27414 ft 382 kts 60°
2026-05-03 23:18 52.33064 -62.33634 26891 ft 380 kts 59°
2026-05-03 23:18 52.34708 -62.30260 26380 ft 379 kts 59°
2026-05-03 23:19 52.36343 -62.26902 25868 ft 377 kts 59°
2026-05-03 23:19 52.37970 -62.23557 25369 ft 375 kts 59°
2026-05-03 23:19 52.39592 -62.20217 24880 ft 373 kts 59°
2026-05-03 23:19 52.41202 -62.16893 24407 ft 372 kts 59°
2026-05-03 23:20 52.42804 -62.13578 23928 ft 370 kts 59°
2026-05-03 23:20 52.44400 -62.10268 23461 ft 370 kts 59°
2026-05-03 23:20 52.45993 -62.06959 22902 ft 369 kts 59°
2026-05-03 23:20 52.47583 -62.03648 22310 ft 370 kts 59°
2026-05-03 23:21 52.49172 -62.00332 21749 ft 369 kts 59°
2026-05-03 23:21 52.50754 -61.97023 21232 ft 368 kts 59°
2026-05-03 23:21 52.52331 -61.93711 20711 ft 367 kts 58°
2026-05-03 23:21 52.53903 -61.90418 20197 ft 366 kts 58°
2026-05-03 23:22 52.57032 -61.83890 19202 ft 365 kts 58°
2026-05-03 23:22 52.58597 -61.80618 18715 ft 364 kts 58°
2026-05-03 23:22 52.60157 -61.77347 18237 ft 363 kts 57°
2026-05-03 23:23 52.61710 -61.74085 17701 ft 362 kts 58°
2026-05-03 23:23 52.63257 -61.70827 17158 ft 361 kts 58°
2026-05-03 23:23 52.64795 -61.67575 16619 ft 357 kts 58°
2026-05-03 23:23 52.66342 -61.64448 16073 ft 349 kts 54°
2026-05-03 23:24 52.68021 -61.61583 15538 ft 346 kts 47°
2026-05-03 23:24 52.69809 -61.58973 15034 ft 341 kts 46°
2026-05-03 23:24 52.71546 -61.56357 14543 ft 336 kts 48°
2026-05-03 23:24 52.73210 -61.53695 14064 ft 331 kts 49°
2026-05-03 23:25 52.74826 -61.51027 13571 ft 327 kts 50°
2026-05-03 23:25 52.76413 -61.48366 13032 ft 323 kts 50°
2026-05-03 23:25 52.77975 -61.45734 12509 ft 319 kts 50°
2026-05-03 23:25 52.79518 -61.43140 11984 ft 315 kts 49°
2026-05-03 23:26 52.81049 -61.40568 11481 ft 311 kts 50°
2026-05-03 23:26 52.82556 -61.38038 10977 ft 307 kts 50°
2026-05-03 23:26 52.84048 -61.35532 10478 ft 304 kts 49°
2026-05-03 23:26 52.85525 -61.33054 9987 ft 300 kts 49°
2026-05-03 23:27 52.86981 -61.30613 9472 ft 297 kts 49°
2026-05-03 23:27 52.88428 -61.28190 8978 ft 294 kts 49°
2026-05-03 23:27 52.89856 -61.25815 8645 ft 288 kts 49°
2026-05-03 23:27 52.91256 -61.23482 8323 ft 283 kts 49°
2026-05-03 23:28 52.92628 -61.21184 8010 ft 279 kts 49°
2026-05-03 23:28 52.93983 -61.18904 7709 ft 276 kts 49°
2026-05-03 23:28 52.95327 -61.16638 7400 ft 275 kts 49°
2026-05-03 23:28 52.96666 -61.14379 7096 ft 274 kts 49°
2026-05-03 23:29 52.97999 -61.12128 6800 ft 273 kts 48°
2026-05-03 23:29 52.99331 -61.09877 6494 ft 275 kts 48°
2026-05-03 23:29 53.00674 -61.07601 6195 ft 277 kts 47°
2026-05-03 23:29 53.02011 -61.05357 5875 ft 269 kts 48°
2026-05-03 23:30 53.03310 -61.03169 5570 ft 263 kts 46°
2026-05-03 23:30 53.04620 -61.01072 5253 ft 259 kts 46°
2026-05-03 23:30 53.05893 -60.98979 4934 ft 256 kts 47°
2026-05-03 23:30 53.07132 -60.96876 4614 ft 254 kts 47°
2026-05-03 23:31 53.08357 -60.94784 4299 ft 252 kts 47°
2026-05-03 23:31 53.09574 -60.92703 3980 ft 250 kts 47°
2026-05-03 23:31 53.10778 -60.90642 3662 ft 248 kts 47°
2026-05-03 23:31 53.11973 -60.88582 3348 ft 246 kts 49°
2026-05-03 23:32 53.12998 -60.86334 3045 ft 243 kts 59°
2026-05-03 23:32 53.13921 -60.84049 2884 ft 237 kts 57°
2026-05-03 23:32 53.14860 -60.81859 2870 ft 229 kts 56°
2026-05-03 23:32 53.15774 -60.79719 2873 ft 225 kts 56°
2026-05-03 23:33 53.16646 -60.77646 2850 ft 198 kts 58°
2026-05-03 23:33 53.17307 -60.75998 2837 ft 147 kts 58°
2026-05-03 23:33 53.17877 -60.74743 2833 ft 138 kts 52°
2026-05-03 23:33 53.18492 -60.73447 2845 ft 145 kts 57°
2026-05-03 23:34 53.19044 -60.72019 2852 ft 148 kts 60°
2026-05-03 23:34 53.19613 -60.70585 2859 ft 147 kts 58°
2026-05-03 23:34 53.20211 -60.69185 2865 ft 145 kts 57°
2026-05-03 23:34 53.20792 -60.67843 2859 ft 144 kts 57°
2026-05-03 23:35 53.21368 -60.66478 2864 ft 144 kts 58°
2026-05-03 23:35 53.21939 -60.65113 2861 ft 143 kts 58°
2026-05-03 23:35 53.22509 -60.63746 2858 ft 143 kts 58°
2026-05-03 23:35 53.23074 -60.62392 2822 ft 139 kts 58°
2026-05-03 23:36 53.23579 -60.61128 2638 ft 126 kts 59°
2026-05-03 23:36 53.24062 -60.59986 2463 ft 119 kts 56°
2026-05-03 23:36 53.24526 -60.58935 2301 ft 107 kts 57°
2026-05-03 23:36 53.24968 -60.57943 2161 ft 101 kts 56°
2026-05-03 23:37 53.25356 -60.56986 2017 ft 99 kts 59°
2026-05-03 23:37 53.25724 -60.56014 1872 ft 99 kts 59°
2026-05-03 23:37 53.26107 -60.55057 1731 ft 99 kts 56°
2026-05-03 23:37 53.26506 -60.54122 1584 ft 99 kts 56°
2026-05-03 23:38 53.26901 -60.53185 1438 ft 99 kts 56°
2026-05-03 23:38 53.27296 -60.52241 1295 ft 99 kts 56°
2026-05-03 23:38 53.27690 -60.51292 1156 ft 100 kts 56°
2026-05-03 23:38 53.28080 -60.50339 1013 ft 99 kts 55°
2026-05-03 23:39 53.28467 -60.49415 863 ft 96 kts 53°
2026-05-03 23:39 53.28850 -60.48510 736 ft 95 kts 53°
2026-05-03 23:39 53.29226 -60.47604 604 ft 95 kts 53°
2026-05-03 23:39 53.29598 -60.46695 491 ft 94 kts 51°
2026-05-03 23:40 53.29974 -60.45806 365 ft 93 kts 53°
2026-05-03 23:40 53.30340 -60.44917 211 ft 91 kts 53°
2026-05-03 23:40 53.30657 -60.44149 155 ft 67 kts 52°
2026-05-03 23:40 53.30854 -60.43677 154 ft 25 kts 63°
2026-05-03 23:41 53.30818 -60.43576 154 ft 7 kts 150°
2026-05-03 23:41 53.30746 -60.43493 155 ft 8 kts 134°
2026-05-03 23:41 53.30762 -60.43409 155 ft 11 kts 55°
2026-05-03 23:41 53.30823 -60.43250 154 ft 21 kts 53°
2026-05-03 23:42 53.30904 -60.43055 154 ft 24 kts 55°
2026-05-03 23:42 53.31102 -60.42609 154 ft 61 kts 57°
2026-05-03 23:42 53.31257 -60.42072 153 ft 34 kts 88°
2026-05-03 23:42 53.31251 -60.41842 153 ft 9 kts 64°
2026-05-03 23:43 53.31259 -60.41803 153 ft 5 kts 102°
2026-05-03 23:43 53.31250 -60.41786 153 ft 0 kts 131°